sensor_id;sensor_type;location;lat;lon;timestamp;temperature;humidity
1075;DHT22;526;51.392;12.448;2023-04-24T00:02:14;13.80;97.30
1075;DHT22;526;51.392;12.448;2023-04-24T00:04:41;13.80;97.30
1075;DHT22;526;51.392;12.448;2023-04-24T00:07:10;13.80;97.30
1075;DHT22;526;51.392;12.448;2023-04-24T00:09:35;13.80;97.30
1075;DHT22;526;51.392;12.448;2023-04-24T00:12:01;13.70;97.30
1075;DHT22;526;51.392;12.448;2023-04-24T00:14:30;13.70;97.30
1075;DHT22;526;51.392;12.448;2023-04-24T00:16:55;13.70;97.30
1075;DHT22;526;51.392;12.448;2023-04-24T00:19:21;13.60;97.30
1075;DHT22;526;51.392;12.448;2023-04-24T00:21:46;13.60;97.30
1075;DHT22;526;51.392;12.448;2023-04-24T00:24:18;13.60;97.30
1075;DHT22;526;51.392;12.448;2023-04-24T00:26:43;13.50;97.30
1075;DHT22;526;51.392;12.448;2023-04-24T00:29:09;13.50;97.30
1075;DHT22;526;51.392;12.448;2023-04-24T00:31:34;13.50;97.30
1075;DHT22;526;51.392;12.448;2023-04-24T00:34:01;13.50;97.30
1075;DHT22;526;51.392;12.448;2023-04-24T00:36:27;13.50;97.30
1075;DHT22;526;51.392;12.448;2023-04-24T00:38:53;13.50;97.30
1075;DHT22;526;51.392;12.448;2023-04-24T00:41:19;13.50;97.30
1075;DHT22;526;51.392;12.448;2023-04-24T00:43:46;13.40;97.30
1075;DHT22;526;51.392;12.448;2023-04-24T00:46:12;13.40;97.30
1075;DHT22;526;51.392;12.448;2023-04-24T00:48:39;13.40;97.30
1075;DHT22;526;51.392;12.448;2023-04-24T00:51:05;13.40;97.30
1075;DHT22;526;51.392;12.448;2023-04-24T00:53:30;13.30;97.30
1075;DHT22;526;51.392;12.448;2023-04-24T00:55:57;13.30;97.30
1075;DHT22;526;51.392;12.448;2023-04-24T00:58:23;13.30;97.30
1075;DHT22;526;51.392;12.448;2023-04-24T01:00:50;13.30;97.30
1075;DHT22;526;51.392;12.448;2023-04-24T01:03:22;13.20;97.30
1075;DHT22;526;51.392;12.448;2023-04-24T01:05:48;13.20;97.30
1075;DHT22;526;51.392;12.448;2023-04-24T01:08:14;13.20;97.30
1075;DHT22;526;51.392;12.448;2023-04-24T01:10:41;13.20;97.30
1075;DHT22;526;51.392;12.448;2023-04-24T01:13:08;13.10;97.30
1075;DHT22;526;51.392;12.448;2023-04-24T01:15:34;13.10;97.30
1075;DHT22;526;51.392;12.448;2023-04-24T01:18:00;13.10;97.30
1075;DHT22;526;51.392;12.448;2023-04-24T01:20:25;13.10;97.30
1075;DHT22;526;51.392;12.448;2023-04-24T01:22:52;13.10;97.30
1075;DHT22;526;51.392;12.448;2023-04-24T01:25:18;13.00;97.30
1075;DHT22;526;51.392;12.448;2023-04-24T01:27:43;13.00;97.30
1075;DHT22;526;51.392;12.448;2023-04-24T01:30:09;13.00;97.30
1075;DHT22;526;51.392;12.448;2023-04-24T01:32:36;13.00;97.30
1075;DHT22;526;51.392;12.448;2023-04-24T01:35:02;13.00;97.30
1075;DHT22;526;51.392;12.448;2023-04-24T01:37:28;13.00;97.30
1075;DHT22;526;51.392;12.448;2023-04-24T01:39:53;12.90;97.30
1075;DHT22;526;51.392;12.448;2023-04-24T01:42:19;12.90;97.30
1075;DHT22;526;51.392;12.448;2023-04-24T01:44:45;12.90;97.30
1075;DHT22;526;51.392;12.448;2023-04-24T01:47:11;12.90;97.30
1075;DHT22;526;51.392;12.448;2023-04-24T01:49:38;12.90;97.30
1075;DHT22;526;51.392;12.448;2023-04-24T01:52:04;12.90;97.30
1075;DHT22;526;51.392;12.448;2023-04-24T01:54:35;12.80;97.30
1075;DHT22;526;51.392;12.448;2023-04-24T01:57:04;12.80;97.30
1075;DHT22;526;51.392;12.448;2023-04-24T01:59:34;12.80;97.30
1075;DHT22;526;51.392;12.448;2023-04-24T02:02:05;12.70;97.30
1075;DHT22;526;51.392;12.448;2023-04-24T02:04:54;12.70;97.30
1075;DHT22;526;51.392;12.448;2023-04-24T02:07:26;12.70;97.30
1075;DHT22;526;51.392;12.448;2023-04-24T02:09:54;12.70;97.30
1075;DHT22;526;51.392;12.448;2023-04-24T02:12:44;12.60;97.30
1075;DHT22;526;51.392;12.448;2023-04-24T02:15:15;12.60;97.30
1075;DHT22;526;51.392;12.448;2023-04-24T02:17:43;12.60;97.30
1075;DHT22;526;51.392;12.448;2023-04-24T02:20:10;12.60;97.30
1075;DHT22;526;51.392;12.448;2023-04-24T02:22:38;12.60;97.30
1075;DHT22;526;51.392;12.448;2023-04-24T02:25:04;12.60;97.30
1075;DHT22;526;51.392;12.448;2023-04-24T02:27:33;12.50;97.30
1075;DHT22;526;51.392;12.448;2023-04-24T02:30:15;12.50;97.30
1075;DHT22;526;51.392;12.448;2023-04-24T02:32:46;12.50;97.30
1075;DHT22;526;51.392;12.448;2023-04-24T02:35:14;12.50;97.30
1075;DHT22;526;51.392;12.448;2023-04-24T02:37:45;12.50;97.30
1075;DHT22;526;51.392;12.448;2023-04-24T02:40:14;12.50;97.30
1075;DHT22;526;51.392;12.448;2023-04-24T02:42:45;12.50;97.30
1075;DHT22;526;51.392;12.448;2023-04-24T02:48:09;12.40;97.30
1075;DHT22;526;51.392;12.448;2023-04-24T02:50:35;12.40;97.30
1075;DHT22;526;51.392;12.448;2023-04-24T02:53:01;12.40;97.30
1075;DHT22;526;51.392;12.448;2023-04-24T02:55:28;12.40;97.30
1075;DHT22;526;51.392;12.448;2023-04-24T02:57:54;12.40;97.30
1075;DHT22;526;51.392;12.448;2023-04-24T03:00:20;12.30;97.30
1075;DHT22;526;51.392;12.448;2023-04-24T03:02:45;12.30;97.30
1075;DHT22;526;51.392;12.448;2023-04-24T03:05:11;12.30;97.30
1075;DHT22;526;51.392;12.448;2023-04-24T03:07:37;12.30;97.30
1075;DHT22;526;51.392;12.448;2023-04-24T03:10:03;12.30;97.30
1075;DHT22;526;51.392;12.448;2023-04-24T03:12:30;12.20;97.30
1075;DHT22;526;51.392;12.448;2023-04-24T03:14:55;12.20;97.30
1075;DHT22;526;51.392;12.448;2023-04-24T03:17:21;12.20;97.30
1075;DHT22;526;51.392;12.448;2023-04-24T03:19:47;12.20;97.30
1075;DHT22;526;51.392;12.448;2023-04-24T03:22:12;12.20;97.30
1075;DHT22;526;51.392;12.448;2023-04-24T03:24:38;12.20;97.30
1075;DHT22;526;51.392;12.448;2023-04-24T03:27:03;12.10;97.30
1075;DHT22;526;51.392;12.448;2023-04-24T03:29:29;12.10;97.30
1075;DHT22;526;51.392;12.448;2023-04-24T03:31:54;12.10;97.30
1075;DHT22;526;51.392;12.448;2023-04-24T03:34:20;12.10;97.30
1075;DHT22;526;51.392;12.448;2023-04-24T03:36:46;12.10;97.30
1075;DHT22;526;51.392;12.448;2023-04-24T03:39:14;12.10;97.30
1075;DHT22;526;51.392;12.448;2023-04-24T03:41:40;12.10;97.30
1075;DHT22;526;51.392;12.448;2023-04-24T03:44:05;12.10;97.30
1075;DHT22;526;51.392;12.448;2023-04-24T03:46:34;12.10;97.30
1075;DHT22;526;51.392;12.448;2023-04-24T03:49:25;12.00;97.30
1075;DHT22;526;51.392;12.448;2023-04-24T03:52:14;12.00;97.30
1075;DHT22;526;51.392;12.448;2023-04-24T03:55:05;12.00;97.30
1075;DHT22;526;51.392;12.448;2023-04-24T04:00:46;12.00;97.30
1075;DHT22;526;51.392;12.448;2023-04-24T04:03:16;12.00;97.30
1075;DHT22;526;51.392;12.448;2023-04-24T04:06:08;12.00;97.30
1075;DHT22;526;51.392;12.448;2023-04-24T04:08:46;11.90;97.30
1075;DHT22;526;51.392;12.448;2023-04-24T04:11:15;11.90;97.30
1075;DHT22;526;51.392;12.448;2023-04-24T04:13:43;12.00;97.30
1075;DHT22;526;51.392;12.448;2023-04-24T04:16:09;12.00;97.30
1075;DHT22;526;51.392;12.448;2023-04-24T04:18:42;12.00;97.30
1075;DHT22;526;51.392;12.448;2023-04-24T04:21:07;12.00;97.30
1075;DHT22;526;51.392;12.448;2023-04-24T04:23:33;12.00;97.30
1075;DHT22;526;51.392;12.448;2023-04-24T04:25:59;12.00;97.30
1075;DHT22;526;51.392;12.448;2023-04-24T04:28:25;12.00;97.30
1075;DHT22;526;51.392;12.448;2023-04-24T04:30:53;12.00;97.30
1075;DHT22;526;51.392;12.448;2023-04-24T04:33:20;12.00;97.30
1075;DHT22;526;51.392;12.448;2023-04-24T04:35:48;12.10;97.30
1075;DHT22;526;51.392;12.448;2023-04-24T04:38:22;12.10;97.30
1075;DHT22;526;51.392;12.448;2023-04-24T04:40:48;12.00;97.30
1075;DHT22;526;51.392;12.448;2023-04-24T04:43:13;12.00;97.30
1075;DHT22;526;51.392;12.448;2023-04-24T04:45:40;12.00;97.30
1075;DHT22;526;51.392;12.448;2023-04-24T04:48:06;12.00;97.30
1075;DHT22;526;51.392;12.448;2023-04-24T04:50:37;12.10;97.30
1075;DHT22;526;51.392;12.448;2023-04-24T04:53:03;12.10;97.30
1075;DHT22;526;51.392;12.448;2023-04-24T04:55:29;12.10;97.30
1075;DHT22;526;51.392;12.448;2023-04-24T04:57:54;12.10;97.30
1075;DHT22;526;51.392;12.448;2023-04-24T05:00:21;12.10;97.30
1075;DHT22;526;51.392;12.448;2023-04-24T05:02:48;12.20;97.30
1075;DHT22;526;51.392;12.448;2023-04-24T05:05:13;12.20;97.30
1075;DHT22;526;51.392;12.448;2023-04-24T05:07:39;12.20;97.30
1075;DHT22;526;51.392;12.448;2023-04-24T05:10:05;12.20;97.30
1075;DHT22;526;51.392;12.448;2023-04-24T05:12:30;12.30;97.30
1075;DHT22;526;51.392;12.448;2023-04-24T05:14:56;12.30;97.30
1075;DHT22;526;51.392;12.448;2023-04-24T05:17:21;12.30;97.30
1075;DHT22;526;51.392;12.448;2023-04-24T05:19:47;12.40;97.30
1075;DHT22;526;51.392;12.448;2023-04-24T05:22:13;12.40;97.30
1075;DHT22;526;51.392;12.448;2023-04-24T05:24:38;12.40;97.30
1075;DHT22;526;51.392;12.448;2023-04-24T05:27:04;12.50;97.30
1075;DHT22;526;51.392;12.448;2023-04-24T05:29:31;12.50;97.30
1075;DHT22;526;51.392;12.448;2023-04-24T05:31:57;12.60;97.30
1075;DHT22;526;51.392;12.448;2023-04-24T05:34:23;12.70;97.30
1075;DHT22;526;51.392;12.448;2023-04-24T05:36:48;12.80;97.30
1075;DHT22;526;51.392;12.448;2023-04-24T05:39:14;12.80;97.30
1075;DHT22;526;51.392;12.448;2023-04-24T05:42:14;12.90;97.30
1075;DHT22;526;51.392;12.448;2023-04-24T05:45:06;12.90;97.30
1075;DHT22;526;51.392;12.448;2023-04-24T05:47:35;12.90;97.30
1075;DHT22;526;51.392;12.448;2023-04-24T05:50:24;12.90;97.30
1075;DHT22;526;51.392;12.448;2023-04-24T05:52:56;13.00;97.30
1075;DHT22;526;51.392;12.448;2023-04-24T05:55:35;13.00;97.30
1075;DHT22;526;51.392;12.448;2023-04-24T05:58:15;13.10;97.30
1075;DHT22;526;51.392;12.448;2023-04-24T06:00:55;13.10;97.30
1075;DHT22;526;51.392;12.448;2023-04-24T06:03:24;13.20;97.30
1075;DHT22;526;51.392;12.448;2023-04-24T06:06:06;13.20;97.30
1075;DHT22;526;51.392;12.448;2023-04-24T06:08:35;13.30;97.30
1075;DHT22;526;51.392;12.448;2023-04-24T06:14:37;13.50;97.30
1075;DHT22;526;51.392;12.448;2023-04-24T06:20:27;13.60;97.30
1075;DHT22;526;51.392;12.448;2023-04-24T06:23:45;13.60;97.30
1075;DHT22;526;51.392;12.448;2023-04-24T06:26:36;13.70;97.30
1075;DHT22;526;51.392;12.448;2023-04-24T06:29:06;13.70;97.30
1075;DHT22;526;51.392;12.448;2023-04-24T06:31:35;13.80;97.30
1075;DHT22;526;51.392;12.448;2023-04-24T06:34:16;13.80;97.30
1075;DHT22;526;51.392;12.448;2023-04-24T06:37:17;13.80;97.30
1075;DHT22;526;51.392;12.448;2023-04-24T06:39:45;13.70;97.30
1075;DHT22;526;51.392;12.448;2023-04-24T06:42:17;13.70;97.30
1075;DHT22;526;51.392;12.448;2023-04-24T06:44:59;13.70;97.30
1075;DHT22;526;51.392;12.448;2023-04-24T06:47:36;13.60;97.30
1075;DHT22;526;51.392;12.448;2023-04-24T06:50:16;13.50;97.30
1075;DHT22;526;51.392;12.448;2023-04-24T06:52:55;13.50;97.30
1075;DHT22;526;51.392;12.448;2023-04-24T06:55:26;13.50;97.30
1075;DHT22;526;51.392;12.448;2023-04-24T06:57:55;13.50;97.30
1075;DHT22;526;51.392;12.448;2023-04-24T07:00:46;13.50;97.30
1075;DHT22;526;51.392;12.448;2023-04-24T07:03:25;13.50;97.30
1075;DHT22;526;51.392;12.448;2023-04-24T07:05:57;13.50;97.30
1075;DHT22;526;51.392;12.448;2023-04-24T07:08:44;13.50;97.30
1075;DHT22;526;51.392;12.448;2023-04-24T07:11:16;13.50;97.30
1075;DHT22;526;51.392;12.448;2023-04-24T07:13:47;13.50;97.30
1075;DHT22;526;51.392;12.448;2023-04-24T07:16:27;13.50;97.30
1075;DHT22;526;51.392;12.448;2023-04-24T07:19:25;13.50;97.30
1075;DHT22;526;51.392;12.448;2023-04-24T07:21:51;13.60;97.30
1075;DHT22;526;51.392;12.448;2023-04-24T07:24:27;13.60;97.30
1075;DHT22;526;51.392;12.448;2023-04-24T07:27:16;13.60;97.30
1075;DHT22;526;51.392;12.448;2023-04-24T07:30:05;13.60;97.30
1075;DHT22;526;51.392;12.448;2023-04-24T07:32:45;13.70;97.30
1075;DHT22;526;51.392;12.448;2023-04-24T07:35:25;13.80;97.30
1075;DHT22;526;51.392;12.448;2023-04-24T07:38:26;13.80;97.30
1075;DHT22;526;51.392;12.448;2023-04-24T07:41:04;14.00;97.30
1075;DHT22;526;51.392;12.448;2023-04-24T07:43:36;14.00;97.30
1075;DHT22;526;51.392;12.448;2023-04-24T07:49:24;14.20;97.30
1075;DHT22;526;51.392;12.448;2023-04-24T07:51:59;14.30;97.30
1075;DHT22;526;51.392;12.448;2023-04-24T07:54:46;14.40;97.30
1075;DHT22;526;51.392;12.448;2023-04-24T07:57:14;14.30;97.30
1075;DHT22;526;51.392;12.448;2023-04-24T07:59:40;14.30;97.30
1075;DHT22;526;51.392;12.448;2023-04-24T08:02:06;14.30;97.30
1075;DHT22;526;51.392;12.448;2023-04-24T08:04:32;14.30;97.30
1075;DHT22;526;51.392;12.448;2023-04-24T08:06:57;14.40;97.30
1075;DHT22;526;51.392;12.448;2023-04-24T08:09:23;14.50;97.30
1075;DHT22;526;51.392;12.448;2023-04-24T08:11:48;14.70;97.30
1075;DHT22;526;51.392;12.448;2023-04-24T08:14:14;14.80;96.90
1075;DHT22;526;51.392;12.448;2023-04-24T08:16:40;14.90;96.50
1075;DHT22;526;51.392;12.448;2023-04-24T08:19:06;15.00;95.80
1075;DHT22;526;51.392;12.448;2023-04-24T08:21:31;15.00;95.20
1075;DHT22;526;51.392;12.448;2023-04-24T08:23:57;14.90;95.40
1075;DHT22;526;51.392;12.448;2023-04-24T08:26:23;15.00;95.70
1075;DHT22;526;51.392;12.448;2023-04-24T08:28:48;15.10;95.10
1075;DHT22;526;51.392;12.448;2023-04-24T08:31:16;15.20;95.00
1075;DHT22;526;51.392;12.448;2023-04-24T08:33:46;15.30;94.50
1075;DHT22;526;51.392;12.448;2023-04-24T08:39:07;15.70;93.80
1075;DHT22;526;51.392;12.448;2023-04-24T08:41:48;15.90;92.70
1075;DHT22;526;51.392;12.448;2023-04-24T08:44:36;15.90;92.00
1075;DHT22;526;51.392;12.448;2023-04-24T08:47:05;15.90;92.40
1075;DHT22;526;51.392;12.448;2023-04-24T08:49:37;15.90;91.50
1075;DHT22;526;51.392;12.448;2023-04-24T08:52:10;15.80;90.30
1075;DHT22;526;51.392;12.448;2023-04-24T08:54:49;15.80;90.10
1075;DHT22;526;51.392;12.448;2023-04-24T08:57:25;15.60;90.00
1075;DHT22;526;51.392;12.448;2023-04-24T08:59:57;15.50;90.30
1075;DHT22;526;51.392;12.448;2023-04-24T09:02:36;15.30;90.60
1075;DHT22;526;51.392;12.448;2023-04-24T09:05:13;15.20;90.70
1075;DHT22;526;51.392;12.448;2023-04-24T09:07:52;15.30;90.80
1075;DHT22;526;51.392;12.448;2023-04-24T09:10:18;15.50;91.10
1075;DHT22;526;51.392;12.448;2023-04-24T09:12:45;15.90;90.80
1075;DHT22;526;51.392;12.448;2023-04-24T09:15:11;15.90;89.90
1075;DHT22;526;51.392;12.448;2023-04-24T09:17:37;15.90;90.10
1075;DHT22;526;51.392;12.448;2023-04-24T09:20:03;15.80;90.00
1075;DHT22;526;51.392;12.448;2023-04-24T09:22:30;15.70;90.10
1075;DHT22;526;51.392;12.448;2023-04-24T09:25:08;15.70;91.20
1075;DHT22;526;51.392;12.448;2023-04-24T09:27:34;15.80;91.10
1075;DHT22;526;51.392;12.448;2023-04-24T09:30:01;15.70;90.40
1075;DHT22;526;51.392;12.448;2023-04-24T09:32:26;15.60;91.10
1075;DHT22;526;51.392;12.448;2023-04-24T09:35:11;15.40;91.20
1075;DHT22;526;51.392;12.448;2023-04-24T09:37:42;15.30;91.90
1075;DHT22;526;51.392;12.448;2023-04-24T09:40:09;15.20;92.50
1075;DHT22;526;51.392;12.448;2023-04-24T09:42:37;15.10;92.10
1075;DHT22;526;51.392;12.448;2023-04-24T09:45:03;15.00;92.60
1075;DHT22;526;51.392;12.448;2023-04-24T09:50:37;15.00;91.90
1075;DHT22;526;51.392;12.448;2023-04-24T09:53:29;15.00;89.40
1075;DHT22;526;51.392;12.448;2023-04-24T09:56:26;15.00;90.20
1075;DHT22;526;51.392;12.448;2023-04-24T09:59:18;15.00;90.90
1075;DHT22;526;51.392;12.448;2023-04-24T10:02:19;15.10;91.20
1075;DHT22;526;51.392;12.448;2023-04-24T10:05:18;15.20;91.10
1075;DHT22;526;51.392;12.448;2023-04-24T10:08:19;15.30;91.70
1075;DHT22;526;51.392;12.448;2023-04-24T10:11:05;15.30;90.80
1075;DHT22;526;51.392;12.448;2023-04-24T10:13:37;15.70;91.20
1075;DHT22;526;51.392;12.448;2023-04-24T10:16:47;15.80;88.30
1075;DHT22;526;51.392;12.448;2023-04-24T10:19:16;15.90;87.00
1075;DHT22;526;51.392;12.448;2023-04-24T10:21:58;16.00;87.80
1075;DHT22;526;51.392;12.448;2023-04-24T10:24:44;16.00;86.70
1075;DHT22;526;51.392;12.448;2023-04-24T10:27:25;15.80;87.70
1075;DHT22;526;51.392;12.448;2023-04-24T10:29:54;15.70;87.40
1075;DHT22;526;51.392;12.448;2023-04-24T10:32:23;15.50;85.20
1075;DHT22;526;51.392;12.448;2023-04-24T10:34:48;15.40;84.50
1075;DHT22;526;51.392;12.448;2023-04-24T10:37:26;15.30;84.60
1075;DHT22;526;51.392;12.448;2023-04-24T10:39:55;15.40;84.40
1075;DHT22;526;51.392;12.448;2023-04-24T10:42:27;15.50;83.70
1075;DHT22;526;51.392;12.448;2023-04-24T10:44:56;15.60;84.60
1075;DHT22;526;51.392;12.448;2023-04-24T10:47:23;16.00;85.10
1075;DHT22;526;51.392;12.448;2023-04-24T10:49:53;16.20;83.50
1075;DHT22;526;51.392;12.448;2023-04-24T10:52:19;16.00;83.50
1075;DHT22;526;51.392;12.448;2023-04-24T10:54:47;16.10;83.20
1075;DHT22;526;51.392;12.448;2023-04-24T10:59:46;15.90;81.40
1075;DHT22;526;51.392;12.448;2023-04-24T11:02:14;16.00;82.50
1075;DHT22;526;51.392;12.448;2023-04-24T11:04:41;16.10;81.70
1075;DHT22;526;51.392;12.448;2023-04-24T11:07:09;16.30;81.80
1075;DHT22;526;51.392;12.448;2023-04-24T11:09:35;16.70;82.20
1075;DHT22;526;51.392;12.448;2023-04-24T11:12:08;16.90;80.00
1075;DHT22;526;51.392;12.448;2023-04-24T11:17:29;17.00;79.30
1075;DHT22;526;51.392;12.448;2023-04-24T11:20:01;16.80;78.30
1075;DHT22;526;51.392;12.448;2023-04-24T11:22:29;16.80;79.40
1075;DHT22;526;51.392;12.448;2023-04-24T11:25:00;16.80;78.20
1075;DHT22;526;51.392;12.448;2023-04-24T11:27:38;16.90;78.40
1075;DHT22;526;51.392;12.448;2023-04-24T11:30:05;17.20;78.00
1075;DHT22;526;51.392;12.448;2023-04-24T11:35:05;17.90;77.30
1075;DHT22;526;51.392;12.448;2023-04-24T11:37:37;18.10;75.30
1075;DHT22;526;51.392;12.448;2023-04-24T11:40:04;17.90;74.10
1075;DHT22;526;51.392;12.448;2023-04-24T11:42:38;18.10;73.90
1075;DHT22;526;51.392;12.448;2023-04-24T11:45:12;18.20;74.40
1075;DHT22;526;51.392;12.448;2023-04-24T11:47:38;18.20;73.20
1075;DHT22;526;51.392;12.448;2023-04-24T11:50:06;18.00;72.50
1075;DHT22;526;51.392;12.448;2023-04-24T11:52:33;17.80;73.10
1075;DHT22;526;51.392;12.448;2023-04-24T11:55:02;17.60;73.50
1075;DHT22;526;51.392;12.448;2023-04-24T11:57:29;17.50;74.70
1075;DHT22;526;51.392;12.448;2023-04-24T11:59:59;17.10;74.80
1075;DHT22;526;51.392;12.448;2023-04-24T12:02:28;16.80;74.80
1075;DHT22;526;51.392;12.448;2023-04-24T12:04:54;16.80;75.60
1075;DHT22;526;51.392;12.448;2023-04-24T12:07:20;17.30;77.10
1075;DHT22;526;51.392;12.448;2023-04-24T12:09:48;17.90;73.40
1075;DHT22;526;51.392;12.448;2023-04-24T12:12:15;17.80;73.10
1075;DHT22;526;51.392;12.448;2023-04-24T12:14:53;17.50;73.80
1075;DHT22;526;51.392;12.448;2023-04-24T12:17:28;17.40;74.70
1075;DHT22;526;51.392;12.448;2023-04-24T12:20:01;17.20;74.40
1075;DHT22;526;51.392;12.448;2023-04-24T12:22:28;17.40;74.60
1075;DHT22;526;51.392;12.448;2023-04-24T12:25:04;17.30;74.30
1075;DHT22;526;51.392;12.448;2023-04-24T12:27:32;17.30;74.80
1075;DHT22;526;51.392;12.448;2023-04-24T12:29:59;17.20;75.00
1075;DHT22;526;51.392;12.448;2023-04-24T12:32:25;17.30;74.90
1075;DHT22;526;51.392;12.448;2023-04-24T12:34:52;17.50;74.40
1075;DHT22;526;51.392;12.448;2023-04-24T12:37:18;17.60;73.70
1075;DHT22;526;51.392;12.448;2023-04-24T12:40:00;17.80;73.60
1075;DHT22;526;51.392;12.448;2023-04-24T12:42:27;17.60;73.70
1075;DHT22;526;51.392;12.448;2023-04-24T12:45:00;17.30;74.00
1075;DHT22;526;51.392;12.448;2023-04-24T12:47:27;17.00;74.10
1075;DHT22;526;51.392;12.448;2023-04-24T12:49:52;16.80;75.00
1075;DHT22;526;51.392;12.448;2023-04-24T12:52:22;16.70;75.90
1075;DHT22;526;51.392;12.448;2023-04-24T12:54:49;16.70;76.10
1075;DHT22;526;51.392;12.448;2023-04-24T12:57:15;16.70;76.10
1075;DHT22;526;51.392;12.448;2023-04-24T12:59:41;16.80;75.20
1075;DHT22;526;51.392;12.448;2023-04-24T13:02:11;17.30;75.80
1075;DHT22;526;51.392;12.448;2023-04-24T13:04:37;17.40;72.80
1075;DHT22;526;51.392;12.448;2023-04-24T13:07:02;17.30;73.50
1075;DHT22;526;51.392;12.448;2023-04-24T13:09:30;17.30;73.60
1075;DHT22;526;51.392;12.448;2023-04-24T13:11:55;17.60;74.60
1075;DHT22;526;51.392;12.448;2023-04-24T13:14:22;17.80;73.70
1075;DHT22;526;51.392;12.448;2023-04-24T13:16:48;18.10;72.50
1075;DHT22;526;51.392;12.448;2023-04-24T13:19:13;17.90;71.60
1075;DHT22;526;51.392;12.448;2023-04-24T13:21:39;17.70;72.30
1075;DHT22;526;51.392;12.448;2023-04-24T13:24:04;17.40;72.50
1075;DHT22;526;51.392;12.448;2023-04-24T13:26:31;17.40;72.20
1075;DHT22;526;51.392;12.448;2023-04-24T13:28:56;17.30;72.50
1075;DHT22;526;51.392;12.448;2023-04-24T13:31:21;17.30;72.70
1075;DHT22;526;51.392;12.448;2023-04-24T13:33:47;17.30;72.60
1075;DHT22;526;51.392;12.448;2023-04-24T13:36:13;17.20;72.80
1075;DHT22;526;51.392;12.448;2023-04-24T13:38:38;17.00;73.30
1075;DHT22;526;51.392;12.448;2023-04-24T13:41:06;17.20;74.30
1075;DHT22;526;51.392;12.448;2023-04-24T13:43:31;17.60;73.20
1075;DHT22;526;51.392;12.448;2023-04-24T13:45:57;17.70;73.10
1075;DHT22;526;51.392;12.448;2023-04-24T13:48:24;17.70;73.50
1075;DHT22;526;51.392;12.448;2023-04-24T13:50:50;17.50;72.70
1075;DHT22;526;51.392;12.448;2023-04-24T13:53:16;17.10;73.30
1075;DHT22;526;51.392;12.448;2023-04-24T13:55:41;16.90;74.00
1075;DHT22;526;51.392;12.448;2023-04-24T13:58:07;16.70;74.60
1075;DHT22;526;51.392;12.448;2023-04-24T14:00:33;16.50;74.80
1075;DHT22;526;51.392;12.448;2023-04-24T14:02:58;16.30;75.20
1075;DHT22;526;51.392;12.448;2023-04-24T14:05:24;16.20;75.50
1075;DHT22;526;51.392;12.448;2023-04-24T14:07:50;16.20;76.10
1075;DHT22;526;51.392;12.448;2023-04-24T14:10:16;16.10;76.60
1075;DHT22;526;51.392;12.448;2023-04-24T14:12:41;16.00;76.50
1075;DHT22;526;51.392;12.448;2023-04-24T14:15:07;16.20;77.30
1075;DHT22;526;51.392;12.448;2023-04-24T14:17:33;16.50;77.30
1075;DHT22;526;51.392;12.448;2023-04-24T14:19:59;16.60;76.60
1075;DHT22;526;51.392;12.448;2023-04-24T14:22:26;16.70;75.00
1075;DHT22;526;51.392;12.448;2023-04-24T14:24:51;16.90;74.40
1075;DHT22;526;51.392;12.448;2023-04-24T14:27:17;16.70;74.60
1075;DHT22;526;51.392;12.448;2023-04-24T14:29:42;16.60;75.50
1075;DHT22;526;51.392;12.448;2023-04-24T14:32:08;16.70;76.10
1075;DHT22;526;51.392;12.448;2023-04-24T14:34:34;16.70;76.10
1075;DHT22;526;51.392;12.448;2023-04-24T14:37:00;16.50;76.40
1075;DHT22;526;51.392;12.448;2023-04-24T14:39:25;16.30;77.10
1075;DHT22;526;51.392;12.448;2023-04-24T14:41:51;16.10;77.80
1075;DHT22;526;51.392;12.448;2023-04-24T14:44:16;16.50;76.70
1075;DHT22;526;51.392;12.448;2023-04-24T14:46:42;16.90;75.60
1075;DHT22;526;51.392;12.448;2023-04-24T14:49:08;17.30;75.70
1075;DHT22;526;51.392;12.448;2023-04-24T14:51:35;17.10;75.90
1075;DHT22;526;51.392;12.448;2023-04-24T14:54:01;16.90;76.50
1075;DHT22;526;51.392;12.448;2023-04-24T14:56:27;16.40;76.70
1075;DHT22;526;51.392;12.448;2023-04-24T14:58:52;16.20;77.10
1075;DHT22;526;51.392;12.448;2023-04-24T15:01:18;16.50;77.70
1075;DHT22;526;51.392;12.448;2023-04-24T15:03:43;16.30;78.80
1075;DHT22;526;51.392;12.448;2023-04-24T15:06:09;16.00;79.40
1075;DHT22;526;51.392;12.448;2023-04-24T15:08:35;15.60;80.50
1075;DHT22;526;51.392;12.448;2023-04-24T15:11:01;15.20;81.80
1075;DHT22;526;51.392;12.448;2023-04-24T15:13:26;14.90;83.00
1075;DHT22;526;51.392;12.448;2023-04-24T15:15:52;14.80;83.70
1075;DHT22;526;51.392;12.448;2023-04-24T15:18:17;14.70;84.10
1075;DHT22;526;51.392;12.448;2023-04-24T15:20:43;14.80;84.40
1075;DHT22;526;51.392;12.448;2023-04-24T15:23:09;15.00;84.10
1075;DHT22;526;51.392;12.448;2023-04-24T15:25:35;15.10;83.10
1075;DHT22;526;51.392;12.448;2023-04-24T15:28:00;15.50;82.00
1075;DHT22;526;51.392;12.448;2023-04-24T15:30:26;15.60;81.10
1075;DHT22;526;51.392;12.448;2023-04-24T15:32:52;15.80;81.60
1075;DHT22;526;51.392;12.448;2023-04-24T15:35:17;15.30;81.80
1075;DHT22;526;51.392;12.448;2023-04-24T15:38:12;14.90;82.90
1075;DHT22;526;51.392;12.448;2023-04-24T15:40:41;14.50;84.00
1075;DHT22;526;51.392;12.448;2023-04-24T15:43:25;14.60;84.80
1075;DHT22;526;51.392;12.448;2023-04-24T15:45:51;14.70;83.70
1075;DHT22;526;51.392;12.448;2023-04-24T15:48:16;14.80;84.30
1075;DHT22;526;51.392;12.448;2023-04-24T15:50:45;14.80;84.70
1075;DHT22;526;51.392;12.448;2023-04-24T15:53:10;14.80;85.10
1075;DHT22;526;51.392;12.448;2023-04-24T15:55:42;14.50;83.00
1075;DHT22;526;51.392;12.448;2023-04-24T15:58:07;14.30;82.80
1075;DHT22;526;51.392;12.448;2023-04-24T16:00:42;14.10;83.10
1075;DHT22;526;51.392;12.448;2023-04-24T16:03:08;14.00;83.80
1075;DHT22;526;51.392;12.448;2023-04-24T16:05:34;14.10;84.50
1075;DHT22;526;51.392;12.448;2023-04-24T16:07:59;14.20;84.00
1075;DHT22;526;51.392;12.448;2023-04-24T16:10:25;14.20;83.60
1075;DHT22;526;51.392;12.448;2023-04-24T16:12:51;14.20;83.90
1075;DHT22;526;51.392;12.448;2023-04-24T16:15:19;14.00;83.00
1075;DHT22;526;51.392;12.448;2023-04-24T16:17:44;14.00;83.80
1075;DHT22;526;51.392;12.448;2023-04-24T16:20:10;13.90;83.40
1075;DHT22;526;51.392;12.448;2023-04-24T16:22:37;13.70;83.90
1075;DHT22;526;51.392;12.448;2023-04-24T16:25:03;13.50;84.40
1075;DHT22;526;51.392;12.448;2023-04-24T16:27:28;13.40;84.70
1075;DHT22;526;51.392;12.448;2023-04-24T16:29:54;13.30;85.00
1075;DHT22;526;51.392;12.448;2023-04-24T16:32:20;13.10;85.10
1075;DHT22;526;51.392;12.448;2023-04-24T16:34:45;13.00;85.50
1075;DHT22;526;51.392;12.448;2023-04-24T16:37:11;13.00;85.40
1075;DHT22;526;51.392;12.448;2023-04-24T16:39:36;12.90;85.80
1075;DHT22;526;51.392;12.448;2023-04-24T16:42:03;12.90;86.30
1075;DHT22;526;51.392;12.448;2023-04-24T16:44:29;12.90;86.30
1075;DHT22;526;51.392;12.448;2023-04-24T16:46:55;12.80;86.10
1075;DHT22;526;51.392;12.448;2023-04-24T16:49:21;12.80;86.30
1075;DHT22;526;51.392;12.448;2023-04-24T16:51:48;12.70;86.70